createdAt,value
2019-03-15T00:01:44.250Z,2.30
2019-03-15T00:04:13.812Z,2.60
2019-03-15T00:06:45.100Z,2.10
2019-03-15T00:09:14.678Z,2.20
2019-03-15T00:11:44.239Z,2.10
2019-03-15T00:16:54.792Z,1.50
2019-03-15T00:19:24.391Z,2.20
2019-03-15T00:21:54.374Z,1.55
2019-03-15T00:24:24.430Z,1.85
2019-03-15T00:26:54.464Z,1.87
2019-03-15T00:29:24.433Z,1.65
2019-03-15T00:32:13.639Z,2.33
2019-03-15T00:34:43.204Z,1.52
2019-03-15T00:37:31.757Z,2.60
2019-03-15T00:45:24.609Z,2.22
2019-03-15T00:47:54.486Z,2.77
2019-03-15T00:50:25.617Z,2.70
2019-03-15T00:52:55.114Z,2.00
2019-03-15T00:55:24.678Z,2.20
2019-03-15T00:57:54.618Z,2.75
2019-03-15T01:00:24.660Z,2.85
2019-03-15T01:02:54.624Z,2.95
2019-03-15T01:05:24.701Z,2.65
2019-03-15T01:07:54.518Z,4.00
2019-03-15T01:10:24.527Z,2.35
2019-03-15T01:12:54.631Z,2.12
2019-03-15T01:15:24.746Z,2.12
2019-03-15T01:17:54.770Z,2.17
2019-03-15T01:20:24.598Z,2.25
2019-03-15T01:22:54.696Z,1.67
2019-03-15T01:25:25.907Z,3.03
2019-03-15T01:27:55.475Z,2.93
2019-03-15T01:30:25.231Z,2.70
2019-03-15T01:32:54.787Z,2.90
2019-03-15T01:35:24.655Z,3.47
2019-03-15T01:37:55.014Z,3.05
2019-03-15T01:40:24.912Z,3.00
2019-03-15T01:42:55.651Z,2.80
2019-03-15T01:45:26.343Z,3.37
2019-03-15T01:47:55.869Z,3.50
2019-03-15T01:50:25.386Z,2.90
2019-03-15T01:52:54.931Z,2.07
2019-03-15T01:55:43.983Z,3.20
2019-03-15T02:01:26.581Z,2.23
2019-03-15T02:03:56.288Z,3.83
2019-03-15T02:06:25.850Z,2.17
2019-03-15T02:08:55.428Z,4.40
2019-03-15T02:11:25.116Z,2.70
2019-03-15T02:13:55.330Z,2.90
2019-03-15T02:16:24.978Z,1.77
2019-03-15T02:18:56.188Z,2.20
2019-03-15T02:21:27.338Z,2.80
2019-03-15T02:23:56.858Z,2.73
2019-03-15T02:26:26.433Z,2.60
2019-03-15T02:28:56.442Z,2.63
2019-03-15T02:31:26.689Z,2.12
2019-03-15T02:37:00.416Z,3.43
2019-03-15T02:39:30.009Z,2.47
2019-03-15T02:41:59.615Z,1.67
2019-03-15T02:44:29.144Z,3.08
2019-03-15T02:46:58.705Z,2.73
2019-03-15T02:49:28.253Z,2.70
2019-03-15T02:51:58.172Z,2.30
2019-03-15T02:54:48.184Z,2.37
2019-03-15T02:57:17.857Z,2.10
2019-03-15T02:59:47.652Z,2.30
2019-03-15T03:02:17.230Z,2.80
2019-03-15T03:04:46.789Z,2.20
2019-03-15T03:07:16.367Z,2.53
2019-03-15T03:09:45.936Z,1.67
2019-03-15T03:12:15.746Z,2.30
2019-03-15T03:15:06.004Z,2.67
2019-03-15T03:17:35.639Z,2.72
2019-03-15T03:20:05.401Z,3.33
2019-03-15T03:22:36.055Z,3.40
2019-03-15T03:25:25.626Z,2.60
2019-03-15T03:27:55.485Z,3.67
2019-03-15T03:30:25.581Z,2.45
2019-03-15T03:32:55.378Z,1.72
2019-03-15T03:35:25.585Z,2.17
2019-03-15T03:37:55.845Z,3.00
2019-03-15T03:40:25.786Z,3.00
2019-03-15T03:42:55.686Z,2.13
2019-03-15T03:45:25.636Z,2.83
2019-03-15T03:47:55.577Z,4.25
2019-03-15T03:50:25.576Z,2.50
2019-03-15T03:52:55.638Z,3.45
2019-03-15T03:55:44.327Z,2.97
2019-03-15T03:58:13.896Z,2.23
2019-03-15T04:00:43.493Z,2.50
2019-03-15T04:03:13.160Z,3.30
2019-03-15T04:05:42.616Z,2.92
2019-03-15T04:08:12.267Z,3.42
2019-03-15T04:10:41.815Z,2.03
2019-03-15T04:13:30.620Z,4.25
2019-03-15T04:16:19.161Z,2.47
2019-03-15T04:18:48.714Z,3.80
2019-03-15T04:21:18.439Z,2.40
2019-03-15T04:23:47.976Z,2.60
2019-03-15T04:26:17.536Z,2.60
2019-03-15T04:28:47.131Z,2.83
2019-03-15T04:31:16.666Z,2.60
2019-03-15T04:33:46.251Z,3.80
2019-03-15T04:36:16.087Z,4.63
2019-03-15T04:38:45.571Z,4.00
2019-03-15T04:41:15.126Z,5.07
2019-03-15T04:43:44.672Z,4.80
2019-03-15T04:46:14.384Z,3.00
2019-03-15T04:48:43.963Z,3.33
2019-03-15T04:51:13.578Z,4.47
2019-03-15T04:53:43.145Z,3.10
2019-03-15T04:56:12.833Z,3.20
2019-03-15T04:58:42.372Z,2.83
2019-03-15T05:01:12.021Z,3.87
2019-03-15T05:03:41.620Z,3.35
2019-03-15T05:06:11.144Z,3.40
2019-03-15T05:08:40.653Z,3.00
2019-03-15T05:11:29.587Z,3.13
2019-03-15T05:13:59.326Z,4.42
2019-03-15T05:16:28.846Z,3.58
2019-03-15T05:18:58.385Z,3.43
2019-03-15T05:21:27.926Z,2.60
2019-03-15T05:23:57.488Z,2.40
2019-03-15T05:26:27.023Z,3.45
2019-03-15T05:28:56.601Z,3.87
2019-03-15T05:31:26.349Z,2.57
2019-03-15T05:33:56.192Z,2.98
2019-03-15T05:36:26.469Z,2.30
2019-03-15T05:38:56.185Z,2.45
2019-03-15T05:41:26.200Z,3.42
2019-03-15T05:43:56.320Z,2.60
2019-03-15T05:49:29.421Z,3.47
2019-03-15T05:52:18.361Z,2.97
2019-03-15T05:54:47.897Z,4.40
2019-03-15T05:57:17.419Z,2.93
2019-03-15T05:59:47.009Z,3.60
2019-03-15T06:02:16.531Z,2.73
2019-03-15T06:04:46.124Z,2.83
2019-03-15T06:07:15.659Z,2.13
2019-03-15T06:09:45.247Z,2.70
2019-03-15T06:12:14.833Z,3.33
2019-03-15T06:14:46.872Z,2.43
2019-03-15T06:17:34.916Z,3.17
2019-03-15T06:20:06.439Z,2.60
2019-03-15T06:22:55.208Z,2.93
2019-03-15T06:25:24.785Z,3.40
2019-03-15T06:27:54.302Z,3.25
2019-03-15T06:30:23.870Z,3.27
2019-03-15T06:32:53.427Z,2.90
2019-03-15T06:35:42.334Z,2.80
2019-03-15T06:38:11.782Z,3.20
2019-03-15T06:40:41.293Z,2.50
2019-03-15T06:43:13.292Z,2.00
2019-03-15T06:45:47.602Z,2.80
2019-03-15T06:48:17.227Z,3.00
2019-03-15T06:50:47.213Z,2.70
2019-03-15T06:53:16.857Z,2.40
2019-03-15T06:55:46.533Z,2.80
2019-03-15T06:58:16.152Z,3.90
2019-03-15T07:00:45.848Z,2.50
2019-03-15T07:03:15.497Z,3.47
2019-03-15T07:05:45.263Z,2.77
2019-03-15T07:08:15.056Z,3.90
2019-03-15T07:10:44.899Z,3.00
2019-03-15T07:13:14.718Z,3.43
2019-03-15T07:15:44.743Z,3.00
2019-03-15T07:18:18.665Z,3.93
2019-03-15T07:21:06.283Z,3.07
2019-03-15T07:23:35.823Z,3.00
2019-03-15T07:26:05.621Z,3.60
2019-03-15T07:28:35.203Z,2.80
2019-03-15T07:31:04.790Z,2.13
2019-03-15T07:33:34.310Z,3.47
2019-03-15T07:36:15.832Z,2.97
2019-03-15T07:38:45.351Z,3.33
2019-03-15T07:41:34.283Z,3.63
2019-03-15T07:44:03.885Z,2.33
2019-03-15T07:46:33.438Z,2.90
2019-03-15T07:49:02.965Z,3.30
2019-03-15T07:51:32.562Z,4.17
2019-03-15T07:54:02.547Z,4.62
2019-03-15T07:56:32.095Z,2.87
2019-03-15T07:59:01.623Z,4.10
2019-03-15T08:01:31.216Z,4.00
2019-03-15T08:04:00.824Z,4.10
2019-03-15T08:06:34.995Z,4.30
2019-03-15T08:09:20.743Z,3.50
2019-03-15T08:11:50.325Z,4.20
2019-03-15T08:14:19.855Z,3.97
2019-03-15T08:19:32.506Z,4.77
2019-03-15T08:22:02.065Z,4.67
2019-03-15T08:24:31.604Z,4.23
2019-03-15T08:27:01.346Z,3.10
2019-03-15T08:29:30.882Z,3.77
2019-03-15T08:32:00.471Z,4.17
2019-03-15T08:34:30.023Z,2.97
2019-03-15T08:36:59.575Z,3.27
2019-03-15T08:39:29.110Z,3.85
2019-03-15T08:41:58.629Z,3.40
2019-03-15T08:44:28.162Z,3.27
2019-03-15T08:46:57.709Z,3.53
2019-03-15T08:49:27.236Z,3.30
2019-03-15T08:52:03.719Z,3.17
2019-03-15T08:54:47.077Z,3.70
2019-03-15T08:57:16.589Z,3.50
2019-03-15T08:59:55.599Z,3.73
2019-03-15T09:02:26.385Z,3.40
2019-03-15T09:04:55.927Z,3.40
2019-03-15T09:07:25.663Z,3.75
2019-03-15T09:09:55.728Z,4.22
2019-03-15T09:12:25.768Z,4.37
2019-03-15T09:14:55.807Z,4.22
2019-03-15T09:17:25.860Z,3.92
2019-03-15T09:19:55.800Z,5.12
2019-03-15T09:22:25.943Z,5.03
2019-03-15T09:24:55.881Z,5.45
2019-03-15T09:27:25.813Z,5.58
2019-03-15T09:29:55.793Z,4.72
2019-03-15T09:32:26.155Z,5.75
2019-03-15T09:34:55.919Z,6.15
2019-03-15T09:37:25.835Z,6.45
2019-03-15T09:39:55.857Z,5.42
2019-03-15T09:42:25.872Z,7.20
2019-03-15T09:44:55.890Z,7.70
2019-03-15T09:47:26.073Z,8.03
2019-03-15T09:49:55.908Z,8.85
2019-03-15T09:52:26.013Z,8.80
2019-03-15T09:54:55.969Z,7.78
2019-03-15T09:57:25.981Z,9.00
2019-03-15T10:00:15.133Z,8.00
2019-03-15T10:02:44.725Z,8.60
2019-03-15T10:05:14.404Z,7.70
2019-03-15T10:07:44.283Z,8.23
2019-03-15T10:10:34.317Z,8.20
2019-03-15T10:13:06.085Z,9.20
2019-03-15T10:15:40.763Z,7.40
2019-03-15T10:18:10.340Z,8.07
2019-03-15T10:20:39.903Z,7.80
2019-03-15T10:23:11.054Z,7.07
2019-03-15T10:25:46.761Z,8.03
2019-03-15T10:28:17.404Z,7.27
2019-03-15T10:30:46.911Z,6.90
2019-03-15T10:33:16.476Z,7.83
2019-03-15T10:35:45.964Z,6.87
2019-03-15T10:38:34.528Z,6.90
2019-03-15T10:41:04.030Z,6.77
2019-03-15T10:43:33.629Z,6.83
2019-03-15T10:46:05.979Z,6.90
2019-03-15T10:48:39.889Z,5.42
2019-03-15T10:53:57.983Z,6.00
2019-03-15T10:56:27.504Z,6.03
2019-03-15T10:58:57.203Z,7.55
2019-03-15T11:01:27.127Z,6.85
2019-03-15T11:03:57.231Z,5.35
2019-03-15T11:06:27.258Z,5.90
2019-03-15T11:08:57.289Z,6.20
2019-03-15T11:11:32.701Z,6.40
2019-03-15T11:14:02.225Z,5.67
2019-03-15T11:19:32.445Z,4.83
2019-03-15T11:22:01.973Z,4.92
2019-03-15T11:24:33.120Z,5.23
2019-03-15T11:27:02.716Z,4.60
2019-03-15T11:29:51.514Z,3.98
2019-03-15T11:32:21.143Z,4.37
2019-03-15T11:34:50.650Z,4.60
2019-03-15T11:37:20.215Z,4.00
2019-03-15T11:40:09.454Z,3.63
2019-03-15T11:42:39.004Z,3.52
2019-03-15T11:45:28.378Z,3.45
2019-03-15T11:48:03.721Z,3.83
2019-03-15T11:50:48.641Z,3.10
2019-03-15T11:53:19.023Z,3.40
2019-03-15T11:56:08.495Z,3.10
2019-03-15T11:58:38.038Z,2.73
2019-03-15T12:01:07.636Z,2.27
2019-03-15T12:03:37.153Z,2.70
2019-03-15T12:06:06.658Z,2.40
2019-03-15T12:08:36.190Z,2.67
2019-03-15T12:11:05.744Z,2.30
2019-03-15T12:13:35.274Z,1.73
2019-03-15T12:16:04.793Z,1.77
2019-03-15T12:18:34.342Z,1.80
2019-03-15T12:21:05.547Z,2.37
2019-03-15T12:23:35.074Z,2.60
2019-03-15T12:26:04.633Z,2.17
2019-03-15T12:28:34.202Z,2.00
2019-03-15T12:31:15.749Z,1.90
2019-03-15T12:34:04.298Z,2.45
2019-03-15T12:36:33.828Z,2.07
2019-03-15T12:39:15.616Z,1.73
2019-03-15T12:41:45.149Z,2.07
2019-03-15T12:44:14.679Z,1.70
2019-03-15T12:46:44.238Z,1.87
2019-03-15T12:49:13.827Z,1.90
2019-03-15T12:52:02.610Z,2.37
2019-03-15T12:54:32.126Z,1.87
2019-03-15T12:57:01.651Z,2.10
2019-03-15T12:59:31.245Z,2.43
2019-03-15T13:04:51.890Z,2.60
2019-03-15T13:07:39.695Z,3.20
2019-03-15T13:10:16.586Z,2.67
2019-03-15T13:12:46.216Z,3.17
2019-03-15T13:15:15.806Z,2.97
2019-03-15T13:17:45.631Z,2.70
2019-03-15T13:20:15.342Z,3.00
2019-03-15T13:22:44.905Z,2.23
2019-03-15T13:25:14.493Z,2.67
2019-03-15T13:27:43.997Z,2.63
2019-03-15T13:30:13.584Z,2.90
2019-03-15T13:32:43.168Z,3.42
2019-03-15T13:35:13.070Z,2.83
2019-03-15T13:37:43.394Z,2.83
2019-03-15T13:40:19.468Z,2.65
2019-03-15T13:42:48.991Z,3.00
2019-03-15T13:45:18.745Z,2.50
2019-03-15T13:47:48.322Z,2.73
2019-03-15T13:50:36.925Z,3.00
2019-03-15T13:53:06.434Z,2.58
2019-03-15T13:55:36.009Z,2.73
2019-03-15T13:58:05.584Z,2.07
2019-03-15T14:03:29.147Z,1.43
2019-03-15T14:06:17.803Z,1.67
2019-03-15T14:08:49.065Z,1.60
2019-03-15T14:11:38.054Z,2.20
2019-03-15T14:14:07.550Z,2.00
2019-03-15T14:19:40.120Z,1.93
2019-03-15T14:22:09.910Z,2.17
2019-03-15T14:24:39.450Z,2.17
2019-03-15T14:27:10.598Z,2.10
2019-03-15T14:29:40.164Z,1.53
2019-03-15T14:32:09.676Z,2.22
2019-03-15T14:34:39.218Z,1.60
2019-03-15T14:37:10.292Z,1.55
2019-03-15T14:39:45.748Z,1.77
2019-03-15T14:42:15.485Z,1.30
2019-03-15T14:44:44.993Z,1.27
2019-03-15T14:50:17.242Z,1.30
2019-03-15T14:52:46.770Z,1.40
2019-03-15T14:55:16.390Z,1.37
2019-03-15T14:57:52.665Z,2.35
2019-03-15T15:00:22.780Z,1.40
2019-03-15T15:05:40.925Z,1.63
2019-03-15T15:11:25.795Z,1.43
2019-03-15T15:14:01.253Z,1.30
2019-03-15T15:16:30.787Z,1.70
2019-03-15T15:19:00.311Z,1.00
2019-03-15T15:21:35.045Z,1.30
2019-03-15T15:24:04.636Z,1.60
2019-03-15T15:26:35.918Z,1.40
2019-03-15T15:29:05.425Z,1.50
2019-03-15T15:31:34.954Z,1.40
2019-03-15T15:34:04.532Z,1.22
2019-03-15T15:36:53.488Z,1.27
2019-03-15T15:39:23.003Z,1.40
2019-03-15T15:41:52.704Z,1.97
2019-03-15T15:44:22.251Z,1.00
2019-03-15T15:46:51.810Z,1.70
2019-03-15T15:49:21.328Z,1.05
2019-03-15T15:51:51.055Z,1.10
2019-03-15T15:54:20.543Z,0.90
2019-03-15T15:56:51.083Z,1.43
2019-03-15T15:59:40.454Z,0.70
2019-03-15T16:02:09.967Z,0.80
2019-03-15T16:04:39.542Z,1.10
2019-03-15T16:07:09.099Z,1.00
2019-03-15T16:09:38.639Z,1.10
2019-03-15T16:12:08.408Z,0.87
2019-03-15T16:14:37.935Z,1.10
2019-03-15T16:17:09.078Z,1.00
2019-03-15T16:19:38.658Z,1.40
2019-03-15T16:22:08.154Z,1.20
2019-03-15T16:24:37.668Z,1.00
2019-03-15T16:27:07.453Z,0.80
2019-03-15T16:29:36.968Z,2.57
2019-03-15T16:32:06.603Z,1.10
2019-03-15T16:34:37.938Z,1.20
2019-03-15T16:37:07.509Z,1.00
2019-03-15T16:39:37.041Z,1.20
2019-03-15T16:42:25.653Z,1.45
2019-03-15T16:44:55.202Z,1.30
2019-03-15T16:50:07.062Z,1.00
2019-03-15T16:52:36.626Z,1.50
2019-03-15T16:55:06.591Z,1.00
2019-03-15T16:57:36.117Z,1.00
2019-03-15T17:00:06.064Z,1.10
2019-03-15T17:02:35.641Z,1.23
2019-03-15T17:07:54.064Z,1.30
2019-03-15T17:10:42.762Z,0.90
2019-03-15T17:13:31.660Z,0.97
2019-03-15T17:16:01.405Z,1.00
2019-03-15T17:18:31.049Z,1.10
2019-03-15T17:21:00.569Z,1.00
2019-03-15T17:23:30.153Z,1.02
2019-03-15T17:25:59.679Z,1.07
2019-03-15T17:28:30.837Z,1.27
2019-03-15T17:31:09.564Z,1.30
2019-03-15T17:33:49.728Z,1.32
2019-03-15T17:36:19.290Z,1.73
2019-03-15T17:38:49.000Z,1.43
2019-03-15T17:41:18.760Z,1.30
2019-03-15T17:43:48.410Z,1.30
2019-03-15T17:49:12.569Z,1.30
2019-03-15T17:51:42.110Z,1.20
2019-03-15T17:54:11.636Z,1.30
2019-03-15T17:56:41.266Z,0.90
2019-03-15T17:59:12.778Z,1.80
2019-03-15T18:01:47.241Z,0.90
2019-03-15T18:04:16.795Z,1.30
2019-03-15T18:06:46.367Z,0.90
2019-03-15T18:09:15.916Z,1.27
2019-03-15T18:11:45.507Z,0.97
2019-03-15T18:14:15.036Z,1.00
2019-03-15T18:16:44.582Z,1.37
2019-03-15T18:19:15.709Z,0.90
2019-03-15T18:21:45.245Z,2.57
2019-03-15T18:24:14.759Z,1.20
2019-03-15T18:26:44.350Z,2.03
2019-03-15T18:29:25.629Z,1.00
2019-03-15T18:32:09.627Z,1.47
2019-03-15T18:34:39.131Z,1.10
2019-03-15T18:37:08.656Z,1.20
2019-03-15T18:39:38.162Z,1.20
2019-03-15T18:42:07.748Z,1.20
2019-03-15T18:44:37.309Z,1.15
2019-03-15T18:47:07.050Z,1.50
2019-03-15T18:49:36.600Z,1.63
2019-03-15T18:52:06.146Z,1.57
2019-03-15T18:54:37.984Z,1.85
2019-03-15T18:57:12.790Z,2.97
2019-03-15T18:59:42.359Z,1.00
2019-03-15T19:02:13.517Z,1.23
2019-03-15T19:04:43.015Z,1.73
2019-03-15T19:07:12.894Z,2.43
2019-03-15T19:09:42.449Z,1.47
2019-03-15T19:12:11.954Z,1.60
2019-03-15T19:15:00.514Z,2.43
2019-03-15T19:17:30.294Z,2.80
2019-03-15T19:19:59.839Z,2.25
2019-03-15T19:22:35.238Z,2.20
2019-03-15T19:25:04.991Z,1.87
2019-03-15T19:27:34.674Z,2.07
2019-03-15T19:30:04.789Z,1.80
2019-03-15T19:32:34.499Z,2.15
2019-03-15T19:35:04.238Z,1.67
2019-03-15T19:37:33.836Z,1.50
2019-03-15T19:40:03.498Z,1.55
2019-03-15T19:42:33.012Z,1.90
2019-03-15T19:45:02.565Z,1.90
2019-03-15T19:47:32.461Z,1.80
2019-03-15T19:50:02.147Z,1.90
2019-03-15T19:52:31.664Z,1.43
2019-03-15T19:57:42.361Z,1.80
2019-03-15T20:00:13.754Z,1.40
2019-03-15T20:02:43.446Z,1.67
2019-03-15T20:05:13.243Z,1.60
2019-03-15T20:07:43.102Z,1.67
2019-03-15T20:10:16.076Z,1.40
2019-03-15T20:13:03.573Z,1.47
2019-03-15T20:15:33.287Z,1.43
2019-03-15T20:18:02.810Z,1.90
2019-03-15T20:23:13.964Z,2.23
2019-03-15T20:25:43.589Z,1.67
2019-03-15T20:28:13.154Z,1.70
2019-03-15T20:30:51.726Z,1.97
2019-03-15T20:33:19.439Z,2.03
2019-03-15T20:35:51.958Z,3.00
2019-03-15T20:38:39.284Z,1.30
2019-03-15T20:41:08.881Z,2.40
2019-03-15T20:46:39.062Z,1.67
2019-03-15T20:49:08.629Z,2.75
2019-03-15T20:51:38.239Z,1.50
2019-03-15T20:54:07.805Z,1.90
2019-03-15T20:56:37.323Z,1.83
2019-03-15T20:59:06.933Z,1.73
2019-03-15T21:01:36.556Z,1.77
2019-03-15T21:04:06.070Z,2.03
2019-03-15T21:06:35.596Z,1.97
2019-03-15T21:09:26.382Z,1.97
2019-03-15T21:11:55.885Z,2.80
2019-03-15T21:14:25.464Z,3.80
2019-03-15T21:16:54.991Z,1.43
2019-03-15T21:19:24.577Z,1.43
2019-03-15T21:22:13.380Z,1.63
2019-03-15T21:24:42.960Z,1.60
2019-03-15T21:27:12.756Z,1.60
2019-03-15T21:30:01.602Z,2.20
2019-03-15T21:32:32.718Z,2.17
2019-03-15T21:35:02.258Z,2.20
2019-03-15T21:37:31.786Z,1.77
2019-03-15T21:40:01.597Z,1.52
2019-03-15T21:42:31.143Z,2.17
2019-03-15T21:45:00.667Z,2.23
2019-03-15T21:47:30.234Z,1.80
2019-03-15T21:49:59.788Z,1.37
2019-03-15T21:52:34.675Z,2.60
2019-03-15T21:55:04.382Z,2.73
2019-03-15T21:57:33.909Z,1.73
2019-03-15T22:00:03.874Z,1.50
2019-03-15T22:02:33.487Z,2.43
2019-03-15T22:05:03.024Z,3.23
2019-03-15T22:07:32.568Z,2.17
2019-03-15T22:10:02.174Z,3.07
2019-03-15T22:12:31.997Z,2.80
2019-03-15T22:15:03.183Z,2.83
2019-03-15T22:17:32.804Z,4.45
2019-03-15T22:20:02.324Z,3.43
2019-03-15T22:22:31.861Z,2.58
2019-03-15T22:27:45.900Z,3.10
2019-03-15T22:30:15.534Z,2.80
2019-03-15T22:32:46.690Z,2.40
2019-03-15T22:35:16.256Z,2.07
2019-03-15T22:37:45.780Z,1.70
2019-03-15T22:40:15.384Z,1.50
2019-03-15T22:42:44.917Z,3.73
2019-03-15T22:45:14.722Z,1.27
2019-03-15T22:50:32.761Z,3.25
2019-03-15T22:53:02.468Z,2.50
2019-03-15T22:55:33.636Z,3.30
2019-03-15T22:58:03.226Z,1.50
2019-03-15T23:00:51.788Z,3.37
2019-03-15T23:03:21.464Z,2.87
2019-03-15T23:05:50.998Z,1.77
2019-03-15T23:08:39.822Z,1.87
2019-03-15T23:11:09.430Z,1.30
2019-03-15T23:13:38.955Z,1.90
2019-03-15T23:16:08.521Z,1.47
2019-03-15T23:18:38.094Z,1.77
2019-03-15T23:21:07.763Z,1.50
2019-03-15T23:23:37.301Z,2.27
2019-03-15T23:26:06.920Z,2.27
2019-03-15T23:28:36.506Z,1.80
2019-03-15T23:31:06.099Z,2.53
2019-03-15T23:33:35.610Z,1.87
2019-03-15T23:36:05.865Z,1.87
2019-03-15T23:38:35.396Z,1.98
2019-03-15T23:41:16.900Z,2.10
2019-03-15T23:43:46.404Z,1.92
2019-03-15T23:46:15.933Z,1.37
2019-03-15T23:48:45.464Z,1.53
2019-03-15T23:51:15.052Z,2.08
2019-03-15T23:53:44.698Z,1.95
2019-03-15T23:56:14.308Z,1.40
2019-03-15T23:58:43.853Z,1.50
